sensor_id;sensor_type;location;lat;lon;timestamp;P1;durP1;ratioP1;P2;durP2;ratioP2
44816;SDS011;30529;53.570;9.964;2022-10-30T00:00:37;26.67;;;16.10;;
44816;SDS011;30529;53.570;9.964;2022-10-30T00:03:04;22.20;;;12.43;;
44816;SDS011;30529;53.570;9.964;2022-10-30T00:05:30;20.00;;;11.33;;
44816;SDS011;30529;53.570;9.964;2022-10-30T00:07:57;18.10;;;10.77;;
44816;SDS011;30529;53.570;9.964;2022-10-30T00:10:23;19.47;;;11.40;;
44816;SDS011;30529;53.570;9.964;2022-10-30T00:12:50;22.70;;;11.73;;
44816;SDS011;30529;53.570;9.964;2022-10-30T00:15:16;20.63;;;11.00;;
44816;SDS011;30529;53.570;9.964;2022-10-30T00:17:42;22.97;;;11.63;;
44816;SDS011;30529;53.570;9.964;2022-10-30T00:20:08;18.33;;;10.27;;
44816;SDS011;30529;53.570;9.964;2022-10-30T00:22:35;22.70;;;11.27;;
44816;SDS011;30529;53.570;9.964;2022-10-30T00:25:02;18.40;;;10.60;;
44816;SDS011;30529;53.570;9.964;2022-10-30T00:27:29;19.50;;;10.20;;
44816;SDS011;30529;53.570;9.964;2022-10-30T00:29:55;21.70;;;11.07;;
44816;SDS011;30529;53.570;9.964;2022-10-30T00:32:21;21.37;;;11.07;;
44816;SDS011;30529;53.570;9.964;2022-10-30T00:34:47;21.17;;;10.80;;
44816;SDS011;30529;53.570;9.964;2022-10-30T00:37:13;19.67;;;10.37;;
44816;SDS011;30529;53.570;9.964;2022-10-30T00:39:39;19.33;;;11.03;;
44816;SDS011;30529;53.570;9.964;2022-10-30T00:42:07;21.60;;;12.03;;
44816;SDS011;30529;53.570;9.964;2022-10-30T00:47:15;25.70;;;15.33;;
44816;SDS011;30529;53.570;9.964;2022-10-30T00:50:30;31.13;;;19.30;;
44816;SDS011;30529;53.570;9.964;2022-10-30T00:52:40;18.67;;;10.47;;
44816;SDS011;30529;53.570;9.964;2022-10-30T00:55:15;20.47;;;9.27;;
44816;SDS011;30529;53.570;9.964;2022-10-30T00:57:50;18.90;;;9.07;;
44816;SDS011;30529;53.570;9.964;2022-10-30T01:00:18;12.20;;;8.47;;
44816;SDS011;30529;53.570;9.964;2022-10-30T01:02:46;18.50;;;8.63;;
44816;SDS011;30529;53.570;9.964;2022-10-30T01:05:15;16.80;;;8.67;;
44816;SDS011;30529;53.570;9.964;2022-10-30T01:07:44;19.03;;;9.60;;
44816;SDS011;30529;53.570;9.964;2022-10-30T01:10:11;20.37;;;9.13;;
44816;SDS011;30529;53.570;9.964;2022-10-30T01:12:38;19.07;;;9.83;;
44816;SDS011;30529;53.570;9.964;2022-10-30T01:15:05;14.27;;;8.90;;
44816;SDS011;30529;53.570;9.964;2022-10-30T01:26:20;15.00;;;8.83;;
44816;SDS011;30529;53.570;9.964;2022-10-30T01:29:11;18.10;;;9.37;;
44816;SDS011;30529;53.570;9.964;2022-10-30T01:37:24;15.47;;;8.37;;
44816;SDS011;30529;53.570;9.964;2022-10-30T01:40:02;16.80;;;8.87;;
44816;SDS011;30529;53.570;9.964;2022-10-30T01:42:51;19.27;;;8.97;;
44816;SDS011;30529;53.570;9.964;2022-10-30T01:52:58;19.90;;;8.37;;
44816;SDS011;30529;53.570;9.964;2022-10-30T01:56:12;16.87;;;8.27;;
44816;SDS011;30529;53.570;9.964;2022-10-30T01:58:43;12.77;;;7.67;;
44816;SDS011;30529;53.570;9.964;2022-10-30T02:01:28;15.67;;;8.20;;
44816;SDS011;30529;53.570;9.964;2022-10-30T02:03:57;14.23;;;7.87;;
44816;SDS011;30529;53.570;9.964;2022-10-30T02:06:24;12.47;;;7.83;;
44816;SDS011;30529;53.570;9.964;2022-10-30T02:08:53;15.10;;;7.83;;
44816;SDS011;30529;53.570;9.964;2022-10-30T02:11:21;15.43;;;8.97;;
44816;SDS011;30529;53.570;9.964;2022-10-30T02:13:51;12.77;;;7.80;;
44816;SDS011;30529;53.570;9.964;2022-10-30T02:16:20;13.27;;;8.17;;
44816;SDS011;30529;53.570;9.964;2022-10-30T02:18:47;14.93;;;8.47;;
44816;SDS011;30529;53.570;9.964;2022-10-30T02:21:14;12.73;;;8.37;;
44816;SDS011;30529;53.570;9.964;2022-10-30T02:23:40;14.57;;;8.33;;
44816;SDS011;30529;53.570;9.964;2022-10-30T02:26:06;17.63;;;8.03;;
44816;SDS011;30529;53.570;9.964;2022-10-30T02:28:32;16.27;;;8.30;;
44816;SDS011;30529;53.570;9.964;2022-10-30T02:30:58;17.93;;;8.50;;
44816;SDS011;30529;53.570;9.964;2022-10-30T02:33:24;15.87;;;8.17;;
44816;SDS011;30529;53.570;9.964;2022-10-30T02:35:51;15.63;;;8.70;;
44816;SDS011;30529;53.570;9.964;2022-10-30T02:38:17;15.63;;;8.57;;
44816;SDS011;30529;53.570;9.964;2022-10-30T02:40:43;17.77;;;8.70;;
44816;SDS011;30529;53.570;9.964;2022-10-30T02:43:09;17.53;;;8.93;;
44816;SDS011;30529;53.570;9.964;2022-10-30T02:45:35;14.50;;;7.77;;
44816;SDS011;30529;53.570;9.964;2022-10-30T02:48:02;14.53;;;7.97;;
44816;SDS011;30529;53.570;9.964;2022-10-30T02:50:28;16.13;;;9.47;;
44816;SDS011;30529;53.570;9.964;2022-10-30T02:52:54;15.07;;;8.13;;
44816;SDS011;30529;53.570;9.964;2022-10-30T02:55:20;15.97;;;8.40;;
44816;SDS011;30529;53.570;9.964;2022-10-30T02:57:46;16.60;;;8.00;;
44816;SDS011;30529;53.570;9.964;2022-10-30T03:00:12;14.60;;;7.70;;
44816;SDS011;30529;53.570;9.964;2022-10-30T03:02:39;15.37;;;8.87;;
44816;SDS011;30529;53.570;9.964;2022-10-30T03:05:05;14.63;;;8.70;;
44816;SDS011;30529;53.570;9.964;2022-10-30T03:07:31;15.47;;;7.70;;
44816;SDS011;30529;53.570;9.964;2022-10-30T03:09:57;16.13;;;9.23;;
44816;SDS011;30529;53.570;9.964;2022-10-30T03:12:23;17.13;;;8.17;;
44816;SDS011;30529;53.570;9.964;2022-10-30T03:14:49;15.50;;;8.40;;
44816;SDS011;30529;53.570;9.964;2022-10-30T03:17:16;12.40;;;8.83;;
44816;SDS011;30529;53.570;9.964;2022-10-30T03:19:42;20.87;;;9.00;;
44816;SDS011;30529;53.570;9.964;2022-10-30T03:22:08;15.43;;;8.27;;
44816;SDS011;30529;53.570;9.964;2022-10-30T03:24:34;19.30;;;8.57;;
44816;SDS011;30529;53.570;9.964;2022-10-30T03:27:00;15.77;;;8.87;;
44816;SDS011;30529;53.570;9.964;2022-10-30T03:29:27;17.80;;;8.90;;
44816;SDS011;30529;53.570;9.964;2022-10-30T03:31:53;15.73;;;8.20;;
44816;SDS011;30529;53.570;9.964;2022-10-30T03:34:19;17.33;;;8.60;;
44816;SDS011;30529;53.570;9.964;2022-10-30T03:36:45;13.47;;;7.83;;
44816;SDS011;30529;53.570;9.964;2022-10-30T03:39:11;16.93;;;8.40;;
44816;SDS011;30529;53.570;9.964;2022-10-30T03:41:38;19.27;;;9.00;;
44816;SDS011;30529;53.570;9.964;2022-10-30T03:44:04;17.10;;;8.00;;
44816;SDS011;30529;53.570;9.964;2022-10-30T03:46:30;15.17;;;8.93;;
44816;SDS011;30529;53.570;9.964;2022-10-30T03:48:56;17.03;;;7.50;;
44816;SDS011;30529;53.570;9.964;2022-10-30T03:51:22;13.67;;;7.77;;
44816;SDS011;30529;53.570;9.964;2022-10-30T03:53:48;16.23;;;8.17;;
44816;SDS011;30529;53.570;9.964;2022-10-30T03:56:14;14.50;;;7.80;;
44816;SDS011;30529;53.570;9.964;2022-10-30T03:58:40;12.37;;;7.07;;
44816;SDS011;30529;53.570;9.964;2022-10-30T04:01:06;15.17;;;7.60;;
44816;SDS011;30529;53.570;9.964;2022-10-30T04:03:34;16.60;;;8.37;;
44816;SDS011;30529;53.570;9.964;2022-10-30T04:06:00;14.23;;;8.07;;
44816;SDS011;30529;53.570;9.964;2022-10-30T04:08:27;16.53;;;8.10;;
44816;SDS011;30529;53.570;9.964;2022-10-30T04:10:53;15.67;;;8.77;;
44816;SDS011;30529;53.570;9.964;2022-10-30T04:13:19;16.13;;;7.70;;
44816;SDS011;30529;53.570;9.964;2022-10-30T04:15:46;12.93;;;8.23;;
44816;SDS011;30529;53.570;9.964;2022-10-30T04:18:14;16.43;;;7.23;;
44816;SDS011;30529;53.570;9.964;2022-10-30T04:20:41;11.60;;;7.67;;
44816;SDS011;30529;53.570;9.964;2022-10-30T04:23:08;10.73;;;7.57;;
44816;SDS011;30529;53.570;9.964;2022-10-30T04:25:41;15.23;;;8.03;;
44816;SDS011;30529;53.570;9.964;2022-10-30T04:28:07;14.40;;;7.50;;
44816;SDS011;30529;53.570;9.964;2022-10-30T04:30:34;18.73;;;8.53;;
44816;SDS011;30529;53.570;9.964;2022-10-30T04:33:02;17.00;;;8.50;;
44816;SDS011;30529;53.570;9.964;2022-10-30T04:35:31;15.93;;;7.37;;
44816;SDS011;30529;53.570;9.964;2022-10-30T04:37:59;13.07;;;7.53;;
44816;SDS011;30529;53.570;9.964;2022-10-30T04:40:27;18.37;;;8.00;;
44816;SDS011;30529;53.570;9.964;2022-10-30T04:42:55;13.97;;;7.83;;
44816;SDS011;30529;53.570;9.964;2022-10-30T04:45:22;16.00;;;8.17;;
44816;SDS011;30529;53.570;9.964;2022-10-30T04:47:48;15.90;;;8.43;;
44816;SDS011;30529;53.570;9.964;2022-10-30T04:50:14;12.20;;;7.67;;
44816;SDS011;30529;53.570;9.964;2022-10-30T04:52:41;11.53;;;8.23;;
44816;SDS011;30529;53.570;9.964;2022-10-30T04:55:08;12.77;;;8.10;;
44816;SDS011;30529;53.570;9.964;2022-10-30T04:57:35;18.33;;;8.23;;
44816;SDS011;30529;53.570;9.964;2022-10-30T05:00:05;13.03;;;7.97;;
44816;SDS011;30529;53.570;9.964;2022-10-30T05:02:33;11.90;;;7.00;;
44816;SDS011;30529;53.570;9.964;2022-10-30T05:05:01;12.57;;;8.07;;
44816;SDS011;30529;53.570;9.964;2022-10-30T05:07:28;12.87;;;7.80;;
44816;SDS011;30529;53.570;9.964;2022-10-30T05:09:54;13.27;;;7.33;;
44816;SDS011;30529;53.570;9.964;2022-10-30T05:12:20;11.67;;;7.70;;
44816;SDS011;30529;53.570;9.964;2022-10-30T05:14:46;14.00;;;7.60;;
44816;SDS011;30529;53.570;9.964;2022-10-30T05:17:13;18.43;;;8.73;;
44816;SDS011;30529;53.570;9.964;2022-10-30T05:19:39;14.30;;;7.67;;
44816;SDS011;30529;53.570;9.964;2022-10-30T05:22:05;15.27;;;8.10;;
44816;SDS011;30529;53.570;9.964;2022-10-30T05:24:31;13.47;;;7.43;;
44816;SDS011;30529;53.570;9.964;2022-10-30T05:26:57;13.27;;;8.37;;
44816;SDS011;30529;53.570;9.964;2022-10-30T05:29:23;14.43;;;7.87;;
44816;SDS011;30529;53.570;9.964;2022-10-30T05:31:49;14.47;;;7.87;;
44816;SDS011;30529;53.570;9.964;2022-10-30T05:34:15;14.97;;;7.30;;
44816;SDS011;30529;53.570;9.964;2022-10-30T05:36:41;12.43;;;7.73;;
44816;SDS011;30529;53.570;9.964;2022-10-30T05:39:07;12.10;;;7.20;;
44816;SDS011;30529;53.570;9.964;2022-10-30T05:41:33;13.90;;;7.93;;
44816;SDS011;30529;53.570;9.964;2022-10-30T05:43:59;12.07;;;8.30;;
44816;SDS011;30529;53.570;9.964;2022-10-30T05:46:25;13.40;;;7.27;;
44816;SDS011;30529;53.570;9.964;2022-10-30T05:48:52;11.70;;;7.67;;
44816;SDS011;30529;53.570;9.964;2022-10-30T05:51:18;14.50;;;7.90;;
44816;SDS011;30529;53.570;9.964;2022-10-30T05:53:46;14.70;;;7.13;;
44816;SDS011;30529;53.570;9.964;2022-10-30T05:56:13;11.60;;;7.17;;
44816;SDS011;30529;53.570;9.964;2022-10-30T05:58:39;14.50;;;7.67;;
44816;SDS011;30529;53.570;9.964;2022-10-30T06:01:06;13.13;;;7.53;;
44816;SDS011;30529;53.570;9.964;2022-10-30T06:03:32;11.60;;;8.00;;
44816;SDS011;30529;53.570;9.964;2022-10-30T06:05:58;11.17;;;7.33;;
44816;SDS011;30529;53.570;9.964;2022-10-30T06:08:24;12.13;;;8.10;;
44816;SDS011;30529;53.570;9.964;2022-10-30T06:10:52;11.77;;;7.57;;
44816;SDS011;30529;53.570;9.964;2022-10-30T06:13:19;16.50;;;7.87;;
44816;SDS011;30529;53.570;9.964;2022-10-30T06:15:45;16.17;;;8.07;;
44816;SDS011;30529;53.570;9.964;2022-10-30T06:18:11;15.03;;;8.17;;
44816;SDS011;30529;53.570;9.964;2022-10-30T06:20:38;18.70;;;7.77;;
44816;SDS011;30529;53.570;9.964;2022-10-30T06:23:05;16.67;;;8.23;;
44816;SDS011;30529;53.570;9.964;2022-10-30T06:25:33;11.40;;;6.80;;
44816;SDS011;30529;53.570;9.964;2022-10-30T06:28:00;14.17;;;7.30;;
44816;SDS011;30529;53.570;9.964;2022-10-30T06:30:26;14.50;;;7.63;;
44816;SDS011;30529;53.570;9.964;2022-10-30T06:32:56;19.03;;;8.00;;
44816;SDS011;30529;53.570;9.964;2022-10-30T06:35:28;13.67;;;7.53;;
44816;SDS011;30529;53.570;9.964;2022-10-30T06:37:54;12.33;;;7.43;;
44816;SDS011;30529;53.570;9.964;2022-10-30T06:40:24;17.90;;;7.90;;
44816;SDS011;30529;53.570;9.964;2022-10-30T06:42:52;15.37;;;7.10;;
44816;SDS011;30529;53.570;9.964;2022-10-30T06:45:19;10.60;;;7.60;;
44816;SDS011;30529;53.570;9.964;2022-10-30T06:47:46;15.90;;;8.10;;
44816;SDS011;30529;53.570;9.964;2022-10-30T06:50:14;12.27;;;6.73;;
44816;SDS011;30529;53.570;9.964;2022-10-30T06:52:42;15.47;;;7.50;;
44816;SDS011;30529;53.570;9.964;2022-10-30T06:55:09;16.27;;;7.90;;
44816;SDS011;30529;53.570;9.964;2022-10-30T06:57:36;14.97;;;8.33;;
44816;SDS011;30529;53.570;9.964;2022-10-30T07:00:03;14.77;;;7.10;;
44816;SDS011;30529;53.570;9.964;2022-10-30T07:02:30;16.20;;;7.90;;
44816;SDS011;30529;53.570;9.964;2022-10-30T07:04:56;15.87;;;7.57;;
44816;SDS011;30529;53.570;9.964;2022-10-30T07:07:22;18.30;;;7.53;;
44816;SDS011;30529;53.570;9.964;2022-10-30T07:09:49;15.80;;;8.03;;
44816;SDS011;30529;53.570;9.964;2022-10-30T07:12:15;16.63;;;8.07;;
44816;SDS011;30529;53.570;9.964;2022-10-30T07:14:41;13.77;;;7.80;;
44816;SDS011;30529;53.570;9.964;2022-10-30T07:17:08;39.20;;;23.23;;
44816;SDS011;30529;53.570;9.964;2022-10-30T07:19:34;22.90;;;13.17;;
44816;SDS011;30529;53.570;9.964;2022-10-30T07:22:00;23.00;;;11.57;;
44816;SDS011;30529;53.570;9.964;2022-10-30T07:24:27;13.20;;;8.90;;
44816;SDS011;30529;53.570;9.964;2022-10-30T07:26:53;18.00;;;8.37;;
44816;SDS011;30529;53.570;9.964;2022-10-30T07:29:20;13.93;;;7.30;;
44816;SDS011;30529;53.570;9.964;2022-10-30T07:31:46;14.90;;;8.13;;
44816;SDS011;30529;53.570;9.964;2022-10-30T07:34:14;12.30;;;8.17;;
44816;SDS011;30529;53.570;9.964;2022-10-30T07:36:41;15.23;;;8.07;;
44816;SDS011;30529;53.570;9.964;2022-10-30T07:39:07;12.03;;;7.97;;
44816;SDS011;30529;53.570;9.964;2022-10-30T07:41:33;16.13;;;8.40;;
44816;SDS011;30529;53.570;9.964;2022-10-30T07:44:00;12.07;;;8.10;;
44816;SDS011;30529;53.570;9.964;2022-10-30T07:46:26;12.47;;;8.00;;
44816;SDS011;30529;53.570;9.964;2022-10-30T07:48:52;16.10;;;8.87;;
44816;SDS011;30529;53.570;9.964;2022-10-30T07:51:18;15.30;;;8.03;;
44816;SDS011;30529;53.570;9.964;2022-10-30T07:53:44;12.77;;;7.70;;
44816;SDS011;30529;53.570;9.964;2022-10-30T07:56:11;14.53;;;8.50;;
44816;SDS011;30529;53.570;9.964;2022-10-30T07:58:37;13.97;;;8.00;;
44816;SDS011;30529;53.570;9.964;2022-10-30T08:01:03;17.23;;;8.73;;
44816;SDS011;30529;53.570;9.964;2022-10-30T08:03:29;15.37;;;8.47;;
44816;SDS011;30529;53.570;9.964;2022-10-30T08:05:55;16.63;;;7.73;;
44816;SDS011;30529;53.570;9.964;2022-10-30T08:08:22;13.97;;;7.40;;
44816;SDS011;30529;53.570;9.964;2022-10-30T08:10:48;13.90;;;8.10;;
44816;SDS011;30529;53.570;9.964;2022-10-30T08:13:15;13.10;;;7.87;;
44816;SDS011;30529;53.570;9.964;2022-10-30T08:15:42;19.27;;;8.90;;
44816;SDS011;30529;53.570;9.964;2022-10-30T08:18:09;14.30;;;7.60;;
44816;SDS011;30529;53.570;9.964;2022-10-30T08:20:35;12.60;;;7.40;;
44816;SDS011;30529;53.570;9.964;2022-10-30T08:23:01;14.63;;;6.90;;
44816;SDS011;30529;53.570;9.964;2022-10-30T08:25:28;16.70;;;7.70;;
44816;SDS011;30529;53.570;9.964;2022-10-30T08:28:02;18.00;;;7.30;;
44816;SDS011;30529;53.570;9.964;2022-10-30T08:30:33;14.07;;;7.33;;
44816;SDS011;30529;53.570;9.964;2022-10-30T08:33:01;17.70;;;7.33;;
44816;SDS011;30529;53.570;9.964;2022-10-30T08:35:29;12.50;;;7.63;;
44816;SDS011;30529;53.570;9.964;2022-10-30T08:37:55;22.43;;;8.10;;
44816;SDS011;30529;53.570;9.964;2022-10-30T08:40:22;18.10;;;6.43;;
44816;SDS011;30529;53.570;9.964;2022-10-30T08:42:52;12.43;;;7.20;;
44816;SDS011;30529;53.570;9.964;2022-10-30T08:45:19;19.67;;;7.97;;
44816;SDS011;30529;53.570;9.964;2022-10-30T08:47:46;13.83;;;7.03;;
44816;SDS011;30529;53.570;9.964;2022-10-30T08:50:13;15.30;;;7.20;;
44816;SDS011;30529;53.570;9.964;2022-10-30T08:52:39;16.90;;;8.00;;
44816;SDS011;30529;53.570;9.964;2022-10-30T08:55:05;16.17;;;7.47;;
44816;SDS011;30529;53.570;9.964;2022-10-30T08:57:35;14.53;;;7.20;;
44816;SDS011;30529;53.570;9.964;2022-10-30T09:00:06;16.23;;;7.57;;
44816;SDS011;30529;53.570;9.964;2022-10-30T09:02:33;16.07;;;6.87;;
44816;SDS011;30529;53.570;9.964;2022-10-30T09:05:01;16.30;;;6.97;;
44816;SDS011;30529;53.570;9.964;2022-10-30T09:07:27;15.67;;;7.63;;
44816;SDS011;30529;53.570;9.964;2022-10-30T09:09:55;14.57;;;7.43;;
44816;SDS011;30529;53.570;9.964;2022-10-30T09:12:22;10.97;;;6.83;;
44816;SDS011;30529;53.570;9.964;2022-10-30T09:14:48;18.47;;;7.20;;
44816;SDS011;30529;53.570;9.964;2022-10-30T09:17:14;14.23;;;7.07;;
44816;SDS011;30529;53.570;9.964;2022-10-30T09:19:40;14.13;;;6.87;;
44816;SDS011;30529;53.570;9.964;2022-10-30T09:22:06;17.17;;;7.83;;
44816;SDS011;30529;53.570;9.964;2022-10-30T09:24:33;15.87;;;7.77;;
44816;SDS011;30529;53.570;9.964;2022-10-30T09:26:59;16.70;;;7.50;;
44816;SDS011;30529;53.570;9.964;2022-10-30T09:29:25;20.93;;;8.13;;
44816;SDS011;30529;53.570;9.964;2022-10-30T09:31:51;16.33;;;7.67;;
44816;SDS011;30529;53.570;9.964;2022-10-30T09:34:17;16.13;;;7.57;;
44816;SDS011;30529;53.570;9.964;2022-10-30T09:36:43;17.90;;;7.37;;
44816;SDS011;30529;53.570;9.964;2022-10-30T09:39:10;19.83;;;7.20;;
44816;SDS011;30529;53.570;9.964;2022-10-30T09:44:32;14.57;;;7.60;;
44816;SDS011;30529;53.570;9.964;2022-10-30T09:52:41;11.90;;;7.40;;
44816;SDS011;30529;53.570;9.964;2022-10-30T09:55:19;15.07;;;7.40;;
44816;SDS011;30529;53.570;9.964;2022-10-30T09:57:57;13.93;;;7.47;;
44816;SDS011;30529;53.570;9.964;2022-10-30T10:00:43;16.47;;;8.57;;
44816;SDS011;30529;53.570;9.964;2022-10-30T10:03:21;14.70;;;8.10;;
44816;SDS011;30529;53.570;9.964;2022-10-30T10:05:58;18.57;;;8.07;;
44816;SDS011;30529;53.570;9.964;2022-10-30T10:08:28;13.73;;;7.33;;
44816;SDS011;30529;53.570;9.964;2022-10-30T10:11:22;16.23;;;8.27;;
44816;SDS011;30529;53.570;9.964;2022-10-30T10:14:23;18.33;;;8.10;;
44816;SDS011;30529;53.570;9.964;2022-10-30T10:16:54;14.07;;;7.70;;
44816;SDS011;30529;53.570;9.964;2022-10-30T10:22:02;16.30;;;8.27;;
44816;SDS011;30529;53.570;9.964;2022-10-30T10:24:35;18.83;;;8.93;;
44816;SDS011;30529;53.570;9.964;2022-10-30T10:27:08;16.80;;;7.63;;
44816;SDS011;30529;53.570;9.964;2022-10-30T10:43:44;18.60;;;8.00;;
44816;SDS011;30529;53.570;9.964;2022-10-30T10:51:58;15.20;;;8.07;;
44816;SDS011;30529;53.570;9.964;2022-10-30T10:54:30;17.57;;;8.27;;
44816;SDS011;30529;53.570;9.964;2022-10-30T10:57:05;13.63;;;8.07;;
44816;SDS011;30529;53.570;9.964;2022-10-30T10:59:33;21.70;;;9.47;;
44816;SDS011;30529;53.570;9.964;2022-10-30T11:04:54;17.40;;;8.50;;
44816;SDS011;30529;53.570;9.964;2022-10-30T11:07:29;19.10;;;8.10;;
44816;SDS011;30529;53.570;9.964;2022-10-30T11:09:58;18.47;;;8.40;;
44816;SDS011;30529;53.570;9.964;2022-10-30T11:12:24;19.93;;;8.47;;
44816;SDS011;30529;53.570;9.964;2022-10-30T11:14:57;16.77;;;7.47;;
44816;SDS011;30529;53.570;9.964;2022-10-30T11:17:29;16.93;;;7.40;;
44816;SDS011;30529;53.570;9.964;2022-10-30T11:20:52;19.87;;;9.00;;
44816;SDS011;30529;53.570;9.964;2022-10-30T11:22:56;18.83;;;7.70;;
44816;SDS011;30529;53.570;9.964;2022-10-30T11:25:23;24.67;;;8.63;;
44816;SDS011;30529;53.570;9.964;2022-10-30T11:27:57;20.30;;;8.60;;
44816;SDS011;30529;53.570;9.964;2022-10-30T11:30:29;15.40;;;7.43;;
44816;SDS011;30529;53.570;9.964;2022-10-30T11:32:56;19.03;;;7.47;;
44816;SDS011;30529;53.570;9.964;2022-10-30T11:35:23;15.23;;;7.67;;
44816;SDS011;30529;53.570;9.964;2022-10-30T11:37:51;22.60;;;7.53;;
44816;SDS011;30529;53.570;9.964;2022-10-30T11:40:46;12.57;;;6.90;;
44816;SDS011;30529;53.570;9.964;2022-10-30T11:43:17;20.07;;;7.77;;
44816;SDS011;30529;53.570;9.964;2022-10-30T11:45:47;18.67;;;7.17;;
44816;SDS011;30529;53.570;9.964;2022-10-30T11:48:26;18.30;;;7.53;;
44816;SDS011;30529;53.570;9.964;2022-10-30T11:50:59;20.07;;;7.87;;
44816;SDS011;30529;53.570;9.964;2022-10-30T11:53:27;17.30;;;8.27;;
44816;SDS011;30529;53.570;9.964;2022-10-30T11:55:58;20.73;;;7.67;;
44816;SDS011;30529;53.570;9.964;2022-10-30T11:58:31;19.53;;;7.20;;
44816;SDS011;30529;53.570;9.964;2022-10-30T12:01:47;21.13;;;7.60;;
44816;SDS011;30529;53.570;9.964;2022-10-30T12:03:55;23.90;;;9.60;;
44816;SDS011;30529;53.570;9.964;2022-10-30T12:06:37;16.37;;;8.17;;
44816;SDS011;30529;53.570;9.964;2022-10-30T12:11:37;17.90;;;7.70;;
44816;SDS011;30529;53.570;9.964;2022-10-30T12:14:12;13.57;;;7.60;;
44816;SDS011;30529;53.570;9.964;2022-10-30T12:16:47;18.23;;;7.63;;
44816;SDS011;30529;53.570;9.964;2022-10-30T12:19:15;16.60;;;7.03;;
44816;SDS011;30529;53.570;9.964;2022-10-30T12:21:45;20.17;;;8.07;;
44816;SDS011;30529;53.570;9.964;2022-10-30T12:24:15;26.90;;;7.57;;
44816;SDS011;30529;53.570;9.964;2022-10-30T12:26:46;16.70;;;7.53;;
44816;SDS011;30529;53.570;9.964;2022-10-30T12:29:15;19.10;;;7.80;;
44816;SDS011;30529;53.570;9.964;2022-10-30T12:34:28;16.10;;;7.30;;
44816;SDS011;30529;53.570;9.964;2022-10-30T12:37:08;16.90;;;7.47;;
44816;SDS011;30529;53.570;9.964;2022-10-30T12:42:30;17.20;;;7.47;;
44816;SDS011;30529;53.570;9.964;2022-10-30T12:47:44;18.63;;;7.10;;
44816;SDS011;30529;53.570;9.964;2022-10-30T12:50:26;18.37;;;8.23;;
44816;SDS011;30529;53.570;9.964;2022-10-30T12:55:50;22.47;;;7.70;;
44816;SDS011;30529;53.570;9.964;2022-10-30T13:00:55;25.23;;;9.37;;
44816;SDS011;30529;53.570;9.964;2022-10-30T13:03:29;19.27;;;8.93;;
44816;SDS011;30529;53.570;9.964;2022-10-30T13:06:35;13.97;;;8.40;;
44816;SDS011;30529;53.570;9.964;2022-10-30T13:09:14;20.13;;;8.70;;
44816;SDS011;30529;53.570;9.964;2022-10-30T13:14:26;17.57;;;8.10;;
44816;SDS011;30529;53.570;9.964;2022-10-30T13:17:15;13.90;;;8.10;;
44816;SDS011;30529;53.570;9.964;2022-10-30T13:19:43;20.87;;;9.67;;
44816;SDS011;30529;53.570;9.964;2022-10-30T13:22:20;18.33;;;8.57;;
44816;SDS011;30529;53.570;9.964;2022-10-30T13:25:02;18.07;;;8.50;;
44816;SDS011;30529;53.570;9.964;2022-10-30T13:30:33;18.03;;;8.40;;
44816;SDS011;30529;53.570;9.964;2022-10-30T13:35:53;14.97;;;7.57;;
44816;SDS011;30529;53.570;9.964;2022-10-30T13:41:05;16.03;;;7.87;;
44816;SDS011;30529;53.570;9.964;2022-10-30T13:51:36;21.70;;;8.80;;
44816;SDS011;30529;53.570;9.964;2022-10-30T13:54:18;15.27;;;7.43;;
44816;SDS011;30529;53.570;9.964;2022-10-30T13:57:00;17.40;;;7.90;;
44816;SDS011;30529;53.570;9.964;2022-10-30T14:02:02;13.60;;;7.77;;
44816;SDS011;30529;53.570;9.964;2022-10-30T14:04:44;14.63;;;8.37;;
44816;SDS011;30529;53.570;9.964;2022-10-30T14:07:15;16.10;;;8.30;;
44816;SDS011;30529;53.570;9.964;2022-10-30T14:10:15;18.77;;;8.50;;
44816;SDS011;30529;53.570;9.964;2022-10-30T14:12:50;13.53;;;9.00;;
44816;SDS011;30529;53.570;9.964;2022-10-30T14:20:37;18.60;;;9.40;;
44816;SDS011;30529;53.570;9.964;2022-10-30T14:25:40;19.37;;;9.10;;
44816;SDS011;30529;53.570;9.964;2022-10-30T14:28:20;16.33;;;8.87;;
44816;SDS011;30529;53.570;9.964;2022-10-30T14:30:46;15.10;;;9.13;;
44816;SDS011;30529;53.570;9.964;2022-10-30T14:36:24;18.23;;;8.10;;
44816;SDS011;30529;53.570;9.964;2022-10-30T14:44:49;18.07;;;8.57;;
44816;SDS011;30529;53.570;9.964;2022-10-30T14:50:13;17.00;;;8.73;;
44816;SDS011;30529;53.570;9.964;2022-10-30T14:53:17;13.83;;;8.63;;
44816;SDS011;30529;53.570;9.964;2022-10-30T15:07:30;16.93;;;8.97;;
44816;SDS011;30529;53.570;9.964;2022-10-30T15:12:55;17.37;;;8.37;;
44816;SDS011;30529;53.570;9.964;2022-10-30T15:15:24;21.03;;;8.00;;
44816;SDS011;30529;53.570;9.964;2022-10-30T15:17:51;18.63;;;8.83;;
44816;SDS011;30529;53.570;9.964;2022-10-30T15:20:28;19.63;;;8.17;;
44816;SDS011;30529;53.570;9.964;2022-10-30T15:22:57;20.63;;;8.50;;
44816;SDS011;30529;53.570;9.964;2022-10-30T15:25:30;21.77;;;9.37;;
44816;SDS011;30529;53.570;9.964;2022-10-30T15:28:00;19.93;;;9.47;;
44816;SDS011;30529;53.570;9.964;2022-10-30T15:30:26;17.17;;;9.53;;
44816;SDS011;30529;53.570;9.964;2022-10-30T15:32:53;15.63;;;8.50;;
44816;SDS011;30529;53.570;9.964;2022-10-30T15:35:21;19.13;;;10.43;;
44816;SDS011;30529;53.570;9.964;2022-10-30T15:38:02;25.77;;;14.67;;
44816;SDS011;30529;53.570;9.964;2022-10-30T15:40:32;126.03;;;77.17;;
44816;SDS011;30529;53.570;9.964;2022-10-30T15:43:00;82.77;;;56.70;;
44816;SDS011;30529;53.570;9.964;2022-10-30T15:45:31;70.53;;;50.63;;
44816;SDS011;30529;53.570;9.964;2022-10-30T15:48:21;24.77;;;16.10;;
44816;SDS011;30529;53.570;9.964;2022-10-30T15:51:31;14.53;;;10.27;;
44816;SDS011;30529;53.570;9.964;2022-10-30T15:53:43;16.60;;;10.63;;
44816;SDS011;30529;53.570;9.964;2022-10-30T15:56:18;18.40;;;10.17;;
44816;SDS011;30529;53.570;9.964;2022-10-30T15:58:51;19.50;;;10.67;;
44816;SDS011;30529;53.570;9.964;2022-10-30T16:01:26;24.83;;;11.93;;
44816;SDS011;30529;53.570;9.964;2022-10-30T16:03:54;23.73;;;12.30;;
44816;SDS011;30529;53.570;9.964;2022-10-30T16:06:22;25.40;;;12.00;;
44816;SDS011;30529;53.570;9.964;2022-10-30T16:08:51;19.03;;;11.77;;
44816;SDS011;30529;53.570;9.964;2022-10-30T16:11:17;20.83;;;11.20;;
44816;SDS011;30529;53.570;9.964;2022-10-30T16:13:45;27.20;;;12.33;;
44816;SDS011;30529;53.570;9.964;2022-10-30T16:16:23;17.97;;;11.50;;
44816;SDS011;30529;53.570;9.964;2022-10-30T16:18:53;22.80;;;12.60;;
44816;SDS011;30529;53.570;9.964;2022-10-30T16:21:23;21.83;;;11.63;;
44816;SDS011;30529;53.570;9.964;2022-10-30T16:23:54;20.70;;;11.03;;
44816;SDS011;30529;53.570;9.964;2022-10-30T16:26:29;22.40;;;11.10;;
44816;SDS011;30529;53.570;9.964;2022-10-30T16:28:58;19.93;;;10.60;;
44816;SDS011;30529;53.570;9.964;2022-10-30T16:31:37;21.10;;;12.53;;
44816;SDS011;30529;53.570;9.964;2022-10-30T16:34:04;22.60;;;12.37;;
44816;SDS011;30529;53.570;9.964;2022-10-30T16:36:37;21.33;;;11.57;;
44816;SDS011;30529;53.570;9.964;2022-10-30T16:39:05;22.60;;;12.03;;
44816;SDS011;30529;53.570;9.964;2022-10-30T16:41:34;20.67;;;11.80;;
44816;SDS011;30529;53.570;9.964;2022-10-30T16:44:06;22.70;;;13.27;;
44816;SDS011;30529;53.570;9.964;2022-10-30T16:46:37;22.50;;;12.90;;
44816;SDS011;30529;53.570;9.964;2022-10-30T16:49:07;28.33;;;15.03;;
44816;SDS011;30529;53.570;9.964;2022-10-30T16:51:40;26.47;;;14.30;;
44816;SDS011;30529;53.570;9.964;2022-10-30T16:54:16;22.03;;;13.80;;
44816;SDS011;30529;53.570;9.964;2022-10-30T16:56:49;20.30;;;12.00;;
44816;SDS011;30529;53.570;9.964;2022-10-30T17:01:53;21.40;;;11.70;;